sensor_id;sensor_type;location;lat;lon;timestamp;pressure;altitude;pressure_sealevel;temperature;humidity
28354;BME280;15603;50.878;8.036;2023-03-12T00:02:03;143024.81;;;-1.04;100.00
28354;BME280;15603;50.878;8.036;2023-03-12T00:04:31;143042.88;;;-0.96;100.00
28354;BME280;15603;50.878;8.036;2023-03-12T00:06:58;143032.00;;;-1.01;100.00
28354;BME280;15603;50.878;8.036;2023-03-12T00:09:25;143039.25;;;-0.97;100.00
28354;BME280;15603;50.878;8.036;2023-03-12T00:11:52;143036.81;;;-0.99;100.00
28354;BME280;15603;50.878;8.036;2023-03-12T00:14:19;143034.44;;;-1.00;100.00
28354;BME280;15603;50.878;8.036;2023-03-12T00:16:46;143034.44;;;-1.00;100.00
28354;BME280;15603;50.878;8.036;2023-03-12T00:19:13;143039.25;;;-0.97;100.00
28354;BME280;15603;50.878;8.036;2023-03-12T00:21:40;143022.38;;;-1.05;100.00
28354;BME280;15603;50.878;8.036;2023-03-12T00:24:07;143045.25;;;-0.95;100.00
28354;BME280;15603;50.878;8.036;2023-03-12T00:26:34;143030.81;;;-1.01;100.00
28354;BME280;15603;50.878;8.036;2023-03-12T00:29:01;143046.47;;;-0.94;100.00
28354;BME280;15603;50.878;8.036;2023-03-12T00:31:30;143040.44;;;-0.97;100.00
28354;BME280;15603;50.878;8.036;2023-03-12T00:34:00;143052.50;;;-0.92;100.00
28354;BME280;15603;50.878;8.036;2023-03-12T00:36:29;143038.06;;;-0.98;100.00
28354;BME280;15603;50.878;8.036;2023-03-12T00:38:58;143040.44;;;-0.97;100.00
28354;BME280;15603;50.878;8.036;2023-03-12T00:41:26;143053.72;;;-0.91;100.00
28354;BME280;15603;50.878;8.036;2023-03-12T00:43:54;143060.97;;;-0.88;100.00
28354;BME280;15603;50.878;8.036;2023-03-12T00:46:21;143017.56;;;-1.07;100.00
28354;BME280;15603;50.878;8.036;2023-03-12T00:48:48;143053.72;;;-0.91;100.00
28354;BME280;15603;50.878;8.036;2023-03-12T00:51:15;143047.69;;;-0.94;100.00
28354;BME280;15603;50.878;8.036;2023-03-12T00:53:42;143034.44;;;-1.00;100.00
28354;BME280;15603;50.878;8.036;2023-03-12T00:56:10;143054.91;;;-0.91;100.00
28354;BME280;15603;50.878;8.036;2023-03-12T00:58:37;143016.38;;;-1.07;100.00
28354;BME280;15603;50.878;8.036;2023-03-12T01:01:04;143053.72;;;-0.91;100.00
28354;BME280;15603;50.878;8.036;2023-03-12T01:03:31;143044.06;;;-0.95;100.00
28354;BME280;15603;50.878;8.036;2023-03-12T01:05:58;143070.59;;;-0.84;100.00
28354;BME280;15603;50.878;8.036;2023-03-12T01:08:25;143072.97;;;-0.83;100.00
28354;BME280;15603;50.878;8.036;2023-03-12T01:10:53;143029.63;;;-1.02;100.00
28354;BME280;15603;50.878;8.036;2023-03-12T01:13:20;143068.16;;;-0.85;100.00
28354;BME280;15603;50.878;8.036;2023-03-12T01:15:48;143056.13;;;-0.90;100.00
28354;BME280;15603;50.878;8.036;2023-03-12T01:18:15;143089.84;;;-0.76;100.00
28354;BME280;15603;50.878;8.036;2023-03-12T01:20:42;143092.28;;;-0.75;100.00
28354;BME280;15603;50.878;8.036;2023-03-12T01:23:09;143087.47;;;-0.77;100.00
28354;BME280;15603;50.878;8.036;2023-03-12T01:25:37;143094.66;;;-0.74;100.00
28354;BME280;15603;50.878;8.036;2023-03-12T01:28:04;142988.66;;;-1.19;100.00
28354;BME280;15603;50.878;8.036;2023-03-12T01:30:31;143116.38;;;-0.65;100.00
28354;BME280;15603;50.878;8.036;2023-03-12T01:32:58;143089.84;;;-0.76;100.00
28354;BME280;15603;50.878;8.036;2023-03-12T01:35:25;143081.41;;;-0.80;100.00
28354;BME280;15603;50.878;8.036;2023-03-12T01:37:52;143080.22;;;-0.80;100.00
28354;BME280;15603;50.878;8.036;2023-03-12T01:40:22;143089.84;;;-0.76;100.00
28354;BME280;15603;50.878;8.036;2023-03-12T01:42:56;143087.47;;;-0.77;100.00
28354;BME280;15603;50.878;8.036;2023-03-12T01:48:35;143123.63;;;-0.62;100.00
28354;BME280;15603;50.878;8.036;2023-03-12T01:51:05;143121.19;;;-0.63;100.00
28354;BME280;15603;50.878;8.036;2023-03-12T01:53:36;143115.19;;;-0.65;100.00
28354;BME280;15603;50.878;8.036;2023-03-12T01:56:04;143121.19;;;-0.63;100.00
28354;BME280;15603;50.878;8.036;2023-03-12T01:58:35;143077.78;;;-0.81;100.00
28354;BME280;15603;50.878;8.036;2023-03-12T02:01:04;143142.91;;;-0.53;100.00
28354;BME280;15603;50.878;8.036;2023-03-12T02:03:32;143150.09;;;-0.50;100.00
28354;BME280;15603;50.878;8.036;2023-03-12T02:06:05;143162.16;;;-0.45;100.00
28354;BME280;15603;50.878;8.036;2023-03-12T02:08:36;143154.91;;;-0.48;100.00
28354;BME280;15603;50.878;8.036;2023-03-12T02:11:04;143136.84;;;-0.56;100.00
28354;BME280;15603;50.878;8.036;2023-03-12T02:13:31;143150.09;;;-0.50;100.00
28354;BME280;15603;50.878;8.036;2023-03-12T02:15:58;143142.91;;;-0.53;100.00
28354;BME280;15603;50.878;8.036;2023-03-12T02:18:26;143145.28;;;-0.52;100.00
28354;BME280;15603;50.878;8.036;2023-03-12T02:21:13;143133.25;;;-0.57;100.00
28354;BME280;15603;50.878;8.036;2023-03-12T02:26:27;143153.72;;;-0.49;100.00
28354;BME280;15603;50.878;8.036;2023-03-12T02:28:58;143147.72;;;-0.51;100.00
28354;BME280;15603;50.878;8.036;2023-03-12T02:31:30;143154.91;;;-0.48;100.00
28354;BME280;15603;50.878;8.036;2023-03-12T02:33:58;143150.09;;;-0.50;100.00
28354;BME280;15603;50.878;8.036;2023-03-12T02:36:26;143148.91;;;-0.51;100.00
28354;BME280;15603;50.878;8.036;2023-03-12T02:38:54;143138.09;;;-0.55;100.00
28354;BME280;15603;50.878;8.036;2023-03-12T02:41:23;143145.28;;;-0.52;100.00
28354;BME280;15603;50.878;8.036;2023-03-12T02:46:40;143154.91;;;-0.48;100.00
28354;BME280;15603;50.878;8.036;2023-03-12T02:49:07;143152.53;;;-0.49;100.00
28354;BME280;15603;50.878;8.036;2023-03-12T02:51:35;143159.78;;;-0.46;100.00
28354;BME280;15603;50.878;8.036;2023-03-12T02:54:02;143152.53;;;-0.49;100.00
28354;BME280;15603;50.878;8.036;2023-03-12T02:56:29;143187.50;;;-0.34;100.00
28354;BME280;15603;50.878;8.036;2023-03-12T02:58:57;143173.00;;;-0.41;100.00
28354;BME280;15603;50.878;8.036;2023-03-12T03:01:25;143198.34;;;-0.30;100.00
28354;BME280;15603;50.878;8.036;2023-03-12T03:03:53;143176.63;;;-0.39;100.00
28354;BME280;15603;50.878;8.036;2023-03-12T03:06:21;143124.81;;;-0.61;100.00
28354;BME280;15603;50.878;8.036;2023-03-12T03:08:49;143198.34;;;-0.30;100.00
28354;BME280;15603;50.878;8.036;2023-03-12T03:11:16;143171.81;;;-0.41;100.00
28354;BME280;15603;50.878;8.036;2023-03-12T03:13:43;143165.78;;;-0.44;100.00
28354;BME280;15603;50.878;8.036;2023-03-12T03:16:11;143214.03;;;-0.23;100.00
28354;BME280;15603;50.878;8.036;2023-03-12T03:18:39;143176.63;;;-0.39;100.00
28354;BME280;15603;50.878;8.036;2023-03-12T03:21:08;143177.88;;;-0.38;100.00
28354;BME280;15603;50.878;8.036;2023-03-12T03:23:36;143177.88;;;-0.38;100.00
28354;BME280;15603;50.878;8.036;2023-03-12T03:26:03;143195.94;;;-0.31;100.00
28354;BME280;15603;50.878;8.036;2023-03-12T03:28:30;143189.88;;;-0.33;100.00
28354;BME280;15603;50.878;8.036;2023-03-12T03:30:58;143186.28;;;-0.35;100.00
28354;BME280;15603;50.878;8.036;2023-03-12T03:33:34;143118.75;;;-0.64;100.00
28354;BME280;15603;50.878;8.036;2023-03-12T03:36:03;143200.78;;;-0.29;100.00
28354;BME280;15603;50.878;8.036;2023-03-12T03:38:34;143189.88;;;-0.33;100.00
28354;BME280;15603;50.878;8.036;2023-03-12T03:41:02;143211.59;;;-0.24;100.00
28354;BME280;15603;50.878;8.036;2023-03-12T03:43:32;143176.63;;;-0.39;100.00
28354;BME280;15603;50.878;8.036;2023-03-12T03:46:01;143220.03;;;-0.21;100.00
28354;BME280;15603;50.878;8.036;2023-03-12T03:48:32;143150.09;;;-0.50;100.00
28354;BME280;15603;50.878;8.036;2023-03-12T03:51:01;143226.06;;;-0.18;100.00
28354;BME280;15603;50.878;8.036;2023-03-12T03:53:30;143233.31;;;-0.15;100.00
28354;BME280;15603;50.878;8.036;2023-03-12T03:55:58;143239.31;;;-0.12;100.00
28354;BME280;15603;50.878;8.036;2023-03-12T03:58:25;143268.28;;;0.00;100.00
28354;BME280;15603;50.878;8.036;2023-03-12T04:00:53;143262.22;;;-0.03;100.00
28354;BME280;15603;50.878;8.036;2023-03-12T04:03:20;143271.88;;;0.02;100.00
28354;BME280;15603;50.878;8.036;2023-03-12T04:05:53;143280.31;;;0.05;100.00
28354;BME280;15603;50.878;8.036;2023-03-12T04:08:20;143282.75;;;0.06;100.00
28354;BME280;15603;50.878;8.036;2023-03-12T04:10:48;143280.31;;;0.05;100.00
28354;BME280;15603;50.878;8.036;2023-03-12T04:13:15;143292.41;;;0.10;100.00
28354;BME280;15603;50.878;8.036;2023-03-12T04:15:50;143259.84;;;-0.04;100.00
28354;BME280;15603;50.878;8.036;2023-03-12T04:18:19;143241.75;;;-0.11;100.00
28354;BME280;15603;50.878;8.036;2023-03-12T04:20:46;143283.94;;;0.07;100.00
28354;BME280;15603;50.878;8.036;2023-03-12T04:23:13;143205.59;;;-0.27;100.00
28354;BME280;15603;50.878;8.036;2023-03-12T04:25:41;143303.22;;;0.15;100.00
28354;BME280;15603;50.878;8.036;2023-03-12T04:28:08;143300.84;;;0.14;100.00
28354;BME280;15603;50.878;8.036;2023-03-12T04:30:37;143357.50;;;0.38;100.00
28354;BME280;15603;50.878;8.036;2023-03-12T04:33:05;143316.50;;;0.21;99.81
28354;BME280;15603;50.878;8.036;2023-03-12T04:35:33;143302.03;;;0.14;99.91
28354;BME280;15603;50.878;8.036;2023-03-12T04:38:01;143304.41;;;0.15;100.00
28354;BME280;15603;50.878;8.036;2023-03-12T04:40:28;143334.59;;;0.28;98.81
28354;BME280;15603;50.878;8.036;2023-03-12T04:42:56;143350.28;;;0.35;97.35
28354;BME280;15603;50.878;8.036;2023-03-12T04:45:23;143343.03;;;0.32;97.44
28354;BME280;15603;50.878;8.036;2023-03-12T04:47:50;143344.22;;;0.32;97.91
28354;BME280;15603;50.878;8.036;2023-03-12T04:50:17;143343.03;;;0.32;96.88
28354;BME280;15603;50.878;8.036;2023-03-12T04:52:44;143359.94;;;0.39;96.56
28354;BME280;15603;50.878;8.036;2023-03-12T04:55:11;143369.59;;;0.43;96.16
28354;BME280;15603;50.878;8.036;2023-03-12T04:57:39;143378.03;;;0.47;95.76
28354;BME280;15603;50.878;8.036;2023-03-12T05:00:06;143333.41;;;0.28;95.32
28354;BME280;15603;50.878;8.036;2023-03-12T05:02:40;143369.59;;;0.43;94.81
28354;BME280;15603;50.878;8.036;2023-03-12T05:05:09;143371.97;;;0.44;95.46
28354;BME280;15603;50.878;8.036;2023-03-12T05:07:37;143328.56;;;0.26;95.33
28354;BME280;15603;50.878;8.036;2023-03-12T05:10:04;143270.69;;;0.01;95.66
28354;BME280;15603;50.878;8.036;2023-03-12T05:12:31;143381.66;;;0.48;94.45
28354;BME280;15603;50.878;8.036;2023-03-12T05:14:58;143385.25;;;0.50;93.97
28354;BME280;15603;50.878;8.036;2023-03-12T05:17:26;143384.03;;;0.49;94.16
28354;BME280;15603;50.878;8.036;2023-03-12T05:19:54;143388.88;;;0.51;94.08
28354;BME280;15603;50.878;8.036;2023-03-12T05:22:21;143381.66;;;0.48;93.71
28354;BME280;15603;50.878;8.036;2023-03-12T05:24:48;143335.78;;;0.29;93.40
28354;BME280;15603;50.878;8.036;2023-03-12T05:27:16;143412.97;;;0.62;93.01
28354;BME280;15603;50.878;8.036;2023-03-12T05:29:43;143403.34;;;0.57;92.42
28354;BME280;15603;50.878;8.036;2023-03-12T05:32:10;143352.69;;;0.36;92.04
28354;BME280;15603;50.878;8.036;2023-03-12T05:34:38;143425.06;;;0.67;91.80
28354;BME280;15603;50.878;8.036;2023-03-12T05:37:05;143427.50;;;0.68;91.20
28354;BME280;15603;50.878;8.036;2023-03-12T05:39:32;143427.50;;;0.68;91.78
28354;BME280;15603;50.878;8.036;2023-03-12T05:42:04;143425.06;;;0.67;91.56
28354;BME280;15603;50.878;8.036;2023-03-12T05:44:31;143441.97;;;0.74;91.12
28354;BME280;15603;50.878;8.036;2023-03-12T05:47:00;143422.66;;;0.66;91.51
28354;BME280;15603;50.878;8.036;2023-03-12T05:49:28;143451.63;;;0.78;89.92
28354;BME280;15603;50.878;8.036;2023-03-12T05:51:56;143470.91;;;0.86;89.42
28354;BME280;15603;50.878;8.036;2023-03-12T05:54:23;143451.63;;;0.78;89.81
28354;BME280;15603;50.878;8.036;2023-03-12T05:56:51;143443.16;;;0.74;90.52
28354;BME280;15603;50.878;8.036;2023-03-12T05:59:20;143478.16;;;0.89;89.63
28354;BME280;15603;50.878;8.036;2023-03-12T06:01:48;143410.59;;;0.61;89.74
28354;BME280;15603;50.878;8.036;2023-03-12T06:04:16;143476.97;;;0.89;89.22
28354;BME280;15603;50.878;8.036;2023-03-12T06:06:44;143509.53;;;1.03;88.83
28354;BME280;15603;50.878;8.036;2023-03-12T06:09:11;143510.72;;;1.03;88.39
28354;BME280;15603;50.878;8.036;2023-03-12T06:11:38;143516.75;;;1.06;88.91
28354;BME280;15603;50.878;8.036;2023-03-12T06:14:05;143531.28;;;1.12;88.91
28354;BME280;15603;50.878;8.036;2023-03-12T06:16:34;143516.75;;;1.06;88.43
28354;BME280;15603;50.878;8.036;2023-03-12T06:19:02;143524.00;;;1.09;89.37
28354;BME280;15603;50.878;8.036;2023-03-12T06:21:33;143526.44;;;1.10;89.65
28354;BME280;15603;50.878;8.036;2023-03-12T06:24:02;143518.00;;;1.06;89.39
28354;BME280;15603;50.878;8.036;2023-03-12T06:26:55;143520.38;;;1.07;89.76
28354;BME280;15603;50.878;8.036;2023-03-12T06:29:22;143526.44;;;1.10;89.53
28354;BME280;15603;50.878;8.036;2023-03-12T06:31:50;143528.84;;;1.11;89.43
28354;BME280;15603;50.878;8.036;2023-03-12T06:34:18;143509.53;;;1.03;89.45
28354;BME280;15603;50.878;8.036;2023-03-12T06:36:45;143514.38;;;1.05;89.42
28354;BME280;15603;50.878;8.036;2023-03-12T06:39:12;143516.75;;;1.06;89.96
28354;BME280;15603;50.878;8.036;2023-03-12T06:41:39;143562.66;;;1.25;91.13
28354;BME280;15603;50.878;8.036;2023-03-12T06:44:07;143552.97;;;1.21;92.18
28354;BME280;15603;50.878;8.036;2023-03-12T06:46:34;143575.91;;;1.31;93.09
28354;BME280;15603;50.878;8.036;2023-03-12T06:49:02;143555.41;;;1.22;93.34
28354;BME280;15603;50.878;8.036;2023-03-12T06:51:30;143565.06;;;1.26;95.36
28354;BME280;15603;50.878;8.036;2023-03-12T06:53:57;143571.06;;;1.29;95.63
28354;BME280;15603;50.878;8.036;2023-03-12T06:56:28;143548.13;;;1.19;97.47
28354;BME280;15603;50.878;8.036;2023-03-12T06:58:55;143546.94;;;1.18;98.15
28354;BME280;15603;50.878;8.036;2023-03-12T07:01:22;143560.22;;;1.24;98.50
28354;BME280;15603;50.878;8.036;2023-03-12T07:03:49;143572.31;;;1.29;98.61
28354;BME280;15603;50.878;8.036;2023-03-12T07:06:20;143586.78;;;1.35;98.30
28354;BME280;15603;50.878;8.036;2023-03-12T07:08:49;143569.88;;;1.28;99.49
28354;BME280;15603;50.878;8.036;2023-03-12T07:11:16;143631.47;;;1.54;98.39
28354;BME280;15603;50.878;8.036;2023-03-12T07:13:44;143630.22;;;1.54;98.37
28354;BME280;15603;50.878;8.036;2023-03-12T07:16:11;143625.41;;;1.52;98.59
28354;BME280;15603;50.878;8.036;2023-03-12T07:18:38;143604.88;;;1.43;99.87
28354;BME280;15603;50.878;8.036;2023-03-12T07:21:05;143589.19;;;1.36;100.00
28354;BME280;15603;50.878;8.036;2023-03-12T07:23:32;143596.44;;;1.40;100.00
28354;BME280;15603;50.878;8.036;2023-03-12T07:25:59;143567.47;;;1.27;100.00
28354;BME280;15603;50.878;8.036;2023-03-12T07:28:26;143556.59;;;1.23;100.00
28354;BME280;15603;50.878;8.036;2023-03-12T07:31:01;143591.63;;;1.37;100.00
28354;BME280;15603;50.878;8.036;2023-03-12T07:33:33;143565.06;;;1.26;100.00
28354;BME280;15603;50.878;8.036;2023-03-12T07:36:00;143566.25;;;1.27;100.00
28354;BME280;15603;50.878;8.036;2023-03-12T07:38:28;143562.66;;;1.25;100.00
28354;BME280;15603;50.878;8.036;2023-03-12T07:40:56;143481.78;;;0.91;100.00
28354;BME280;15603;50.878;8.036;2023-03-12T07:43:24;143560.22;;;1.24;100.00
28354;BME280;15603;50.878;8.036;2023-03-12T07:45:53;143567.47;;;1.27;100.00
28354;BME280;15603;50.878;8.036;2023-03-12T07:48:21;143572.31;;;1.29;100.00
28354;BME280;15603;50.878;8.036;2023-03-12T07:50:48;143591.63;;;1.37;100.00
28354;BME280;15603;50.878;8.036;2023-03-12T07:53:15;143627.81;;;1.53;100.00
28354;BME280;15603;50.878;8.036;2023-03-12T07:55:44;143623.00;;;1.51;100.00
28354;BME280;15603;50.878;8.036;2023-03-12T07:58:13;143627.81;;;1.53;100.00
28354;BME280;15603;50.878;8.036;2023-03-12T08:00:41;143608.53;;;1.45;100.00
28354;BME280;15603;50.878;8.036;2023-03-12T08:03:09;143651.97;;;1.63;100.00
28354;BME280;15603;50.878;8.036;2023-03-12T08:05:36;143636.28;;;1.56;100.00
28354;BME280;15603;50.878;8.036;2023-03-12T08:08:05;143683.34;;;1.76;100.00
28354;BME280;15603;50.878;8.036;2023-03-12T08:10:32;143685.78;;;1.77;100.00
28354;BME280;15603;50.878;8.036;2023-03-12T08:12:59;143673.69;;;1.72;100.00
28354;BME280;15603;50.878;8.036;2023-03-12T08:15:26;143719.59;;;1.92;100.00
28354;BME280;15603;50.878;8.036;2023-03-12T08:17:53;143703.91;;;1.85;100.00
28354;BME280;15603;50.878;8.036;2023-03-12T08:20:21;143688.19;;;1.79;100.00
28354;BME280;15603;50.878;8.036;2023-03-12T08:22:48;143707.53;;;1.87;100.00
28354;BME280;15603;50.878;8.036;2023-03-12T08:25:15;143719.59;;;1.92;100.00
28354;BME280;15603;50.878;8.036;2023-03-12T08:27:44;143738.91;;;2.00;100.00
28354;BME280;15603;50.878;8.036;2023-03-12T08:30:11;143729.25;;;1.96;100.00
28354;BME280;15603;50.878;8.036;2023-03-12T08:32:39;143726.84;;;1.95;100.00
28354;BME280;15603;50.878;8.036;2023-03-12T08:35:06;143743.78;;;2.02;100.00
28354;BME280;15603;50.878;8.036;2023-03-12T08:37:33;143761.88;;;2.10;100.00
28354;BME280;15603;50.878;8.036;2023-03-12T08:40:01;143796.88;;;2.25;100.00
28354;BME280;15603;50.878;8.036;2023-03-12T08:42:28;143806.53;;;2.29;100.00
28354;BME280;15603;50.878;8.036;2023-03-12T08:44:55;143806.53;;;2.29;100.00
28354;BME280;15603;50.878;8.036;2023-03-12T08:47:22;143813.81;;;2.32;100.00
28354;BME280;15603;50.878;8.036;2023-03-12T08:49:49;143811.38;;;2.31;100.00
28354;BME280;15603;50.878;8.036;2023-03-12T08:52:16;143825.91;;;2.37;100.00
28354;BME280;15603;50.878;8.036;2023-03-12T08:54:43;143794.50;;;2.24;100.00
28354;BME280;15603;50.878;8.036;2023-03-12T08:57:10;143874.19;;;2.58;100.00
28354;BME280;15603;50.878;8.036;2023-03-12T08:59:37;143869.38;;;2.55;100.00
28354;BME280;15603;50.878;8.036;2023-03-12T09:02:04;143792.06;;;2.23;100.00
28354;BME280;15603;50.878;8.036;2023-03-12T09:04:32;143857.31;;;2.50;100.00
28354;BME280;15603;50.878;8.036;2023-03-12T09:07:00;143836.75;;;2.42;100.00
28354;BME280;15603;50.878;8.036;2023-03-12T09:09:27;143869.38;;;2.55;100.00
28354;BME280;15603;50.878;8.036;2023-03-12T09:11:54;143879.03;;;2.60;100.00
28354;BME280;15603;50.878;8.036;2023-03-12T09:14:21;143891.13;;;2.65;100.00
28354;BME280;15603;50.878;8.036;2023-03-12T09:17:09;143881.47;;;2.61;100.00
28354;BME280;15603;50.878;8.036;2023-03-12T09:19:36;143915.28;;;2.75;100.00
28354;BME280;15603;50.878;8.036;2023-03-12T09:22:03;143937.03;;;2.84;100.00
28354;BME280;15603;50.878;8.036;2023-03-12T09:24:30;143952.78;;;2.91;100.00
28354;BME280;15603;50.878;8.036;2023-03-12T09:26:57;143960.00;;;2.94;100.00
28354;BME280;15603;50.878;8.036;2023-03-12T09:29:24;143958.81;;;2.93;100.00
28354;BME280;15603;50.878;8.036;2023-03-12T09:31:51;143995.06;;;3.09;100.00
28354;BME280;15603;50.878;8.036;2023-03-12T09:34:19;143985.41;;;3.05;100.00
28354;BME280;15603;50.878;8.036;2023-03-12T09:36:46;143958.81;;;2.93;100.00
28354;BME280;15603;50.878;8.036;2023-03-12T09:39:13;143932.22;;;2.82;100.00
28354;BME280;15603;50.878;8.036;2023-03-12T09:41:42;143973.31;;;3.00;100.00
28354;BME280;15603;50.878;8.036;2023-03-12T09:44:27;143989.03;;;3.06;100.00
28354;BME280;15603;50.878;8.036;2023-03-12T09:46:59;143923.75;;;2.79;100.00
28354;BME280;15603;50.878;8.036;2023-03-12T09:49:43;144048.28;;;3.31;100.00
28354;BME280;15603;50.878;8.036;2023-03-12T09:52:29;144027.69;;;3.23;100.00
28354;BME280;15603;50.878;8.036;2023-03-12T09:55:06;144101.44;;;3.54;100.00
28354;BME280;15603;50.878;8.036;2023-03-12T09:57:37;144172.81;;;3.84;100.00
28354;BME280;15603;50.878;8.036;2023-03-12T10:00:09;144184.91;;;3.89;100.00
28354;BME280;15603;50.878;8.036;2023-03-12T10:05:23;144161.94;;;3.80;100.00
28354;BME280;15603;50.878;8.036;2023-03-12T10:19:12;144212.72;;;4.01;100.00
28354;BME280;15603;50.878;8.036;2023-03-12T10:27:11;144304.66;;;4.40;100.00
28354;BME280;15603;50.878;8.036;2023-03-12T10:29:42;144227.22;;;4.07;100.00
28354;BME280;15603;50.878;8.036;2023-03-12T10:32:35;144339.75;;;4.55;100.00
28354;BME280;15603;50.878;8.036;2023-03-12T10:35:15;144332.47;;;4.52;100.00
28354;BME280;15603;50.878;8.036;2023-03-12T10:37:48;144330.09;;;4.51;100.00
28354;BME280;15603;50.878;8.036;2023-03-12T10:40:20;144338.56;;;4.55;100.00
28354;BME280;15603;50.878;8.036;2023-03-12T10:42:48;144316.78;;;4.45;100.00
28354;BME280;15603;50.878;8.036;2023-03-12T10:45:40;144386.94;;;4.75;100.00
28354;BME280;15603;50.878;8.036;2023-03-12T10:48:16;144396.66;;;4.79;100.00
28354;BME280;15603;50.878;8.036;2023-03-12T10:50:59;144401.50;;;4.81;100.00
28354;BME280;15603;50.878;8.036;2023-03-12T10:53:29;144448.69;;;5.01;100.00
28354;BME280;15603;50.878;8.036;2023-03-12T10:56:09;144423.25;;;4.90;100.00
28354;BME280;15603;50.878;8.036;2023-03-12T10:58:43;144477.72;;;5.14;100.00
28354;BME280;15603;50.878;8.036;2023-03-12T11:01:25;144432.97;;;4.95;100.00
28354;BME280;15603;50.878;8.036;2023-03-12T11:04:08;144435.38;;;4.96;100.00
28354;BME280;15603;50.878;8.036;2023-03-12T11:06:39;144440.22;;;4.98;100.00
28354;BME280;15603;50.878;8.036;2023-03-12T11:09:17;144454.72;;;5.04;100.00
28354;BME280;15603;50.878;8.036;2023-03-12T11:11:48;144464.41;;;5.08;100.00
28354;BME280;15603;50.878;8.036;2023-03-12T11:16:45;144460.81;;;5.06;100.00
28354;BME280;15603;50.878;8.036;2023-03-12T11:19:14;144418.41;;;4.88;100.00
28354;BME280;15603;50.878;8.036;2023-03-12T11:22:03;144399.06;;;4.80;100.00
28354;BME280;15603;50.878;8.036;2023-03-12T11:24:30;144407.53;;;4.84;100.00
28354;BME280;15603;50.878;8.036;2023-03-12T11:27:19;144384.53;;;4.74;100.00
28354;BME280;15603;50.878;8.036;2023-03-12T11:29:52;144417.22;;;4.88;100.00
28354;BME280;15603;50.878;8.036;2023-03-12T11:34:54;144353.06;;;4.61;100.00
28354;BME280;15603;50.878;8.036;2023-03-12T11:43:22;144439.00;;;4.97;100.00
28354;BME280;15603;50.878;8.036;2023-03-12T11:56:45;144516.50;;;5.30;100.00
28354;BME280;15603;50.878;8.036;2023-03-12T12:02:44;144546.78;;;5.43;100.00
28354;BME280;15603;50.878;8.036;2023-03-12T12:08:42;144577.03;;;5.56;100.00
28354;BME280;15603;50.878;8.036;2023-03-12T12:17:16;144641.22;;;5.83;100.00
28354;BME280;15603;50.878;8.036;2023-03-12T12:20:16;144646.06;;;5.85;100.00
28354;BME280;15603;50.878;8.036;2023-03-12T12:25:37;144608.50;;;5.69;100.00
28354;BME280;15603;50.878;8.036;2023-03-12T12:28:14;144709.09;;;6.12;100.00
28354;BME280;15603;50.878;8.036;2023-03-12T12:31:39;144718.78;;;6.16;100.00
28354;BME280;15603;50.878;8.036;2023-03-12T12:34:04;144718.78;;;6.16;100.00
28354;BME280;15603;50.878;8.036;2023-03-12T12:36:36;144735.75;;;6.23;100.00
28354;BME280;15603;50.878;8.036;2023-03-12T12:39:38;144690.94;;;6.04;100.00
28354;BME280;15603;50.878;8.036;2023-03-12T12:42:12;144699.41;;;6.07;100.00
28354;BME280;15603;50.878;8.036;2023-03-12T12:44:48;144726.06;;;6.19;100.00
28354;BME280;15603;50.878;8.036;2023-03-12T12:47:22;144769.72;;;6.37;100.00
28354;BME280;15603;50.878;8.036;2023-03-12T12:49:55;144764.88;;;6.35;100.00
28354;BME280;15603;50.878;8.036;2023-03-12T12:52:24;144776.94;;;6.40;100.00
28354;BME280;15603;50.878;8.036;2023-03-12T12:57:31;144876.34;;;6.82;100.00
28354;BME280;15603;50.878;8.036;2023-03-12T13:00:38;144905.41;;;6.95;100.00
28354;BME280;15603;50.878;8.036;2023-03-12T13:03:20;144906.66;;;6.95;100.00
28354;BME280;15603;50.878;8.036;2023-03-12T13:11:22;145004.84;;;7.37;100.00
28354;BME280;15603;50.878;8.036;2023-03-12T13:14:11;145021.84;;;7.44;100.00
28354;BME280;15603;50.878;8.036;2023-03-12T13:16:44;144990.31;;;7.31;100.00
28354;BME280;15603;50.878;8.036;2023-03-12T13:21:49;144946.69;;;7.12;100.00
28354;BME280;15603;50.878;8.036;2023-03-12T13:24:38;144946.69;;;7.12;100.00
28354;BME280;15603;50.878;8.036;2023-03-12T13:29:54;145020.63;;;7.43;100.00
28354;BME280;15603;50.878;8.036;2023-03-12T13:35:27;145021.84;;;7.44;100.00
28354;BME280;15603;50.878;8.036;2023-03-12T13:40:35;145038.81;;;7.51;100.00
28354;BME280;15603;50.878;8.036;2023-03-12T13:48:22;145009.69;;;7.39;100.00
28354;BME280;15603;50.878;8.036;2023-03-12T13:50:58;144993.94;;;7.32;100.00
28354;BME280;15603;50.878;8.036;2023-03-12T13:53:33;144978.16;;;7.25;100.00
28354;BME280;15603;50.878;8.036;2023-03-12T13:56:10;145014.53;;;7.41;100.00
28354;BME280;15603;50.878;8.036;2023-03-12T13:59:00;144983.06;;;7.27;100.00
28354;BME280;15603;50.878;8.036;2023-03-12T14:01:34;144966.06;;;7.20;100.00
28354;BME280;15603;50.878;8.036;2023-03-12T14:04:10;144959.97;;;7.18;100.00
28354;BME280;15603;50.878;8.036;2023-03-12T14:12:30;144920.00;;;7.01;100.00
28354;BME280;15603;50.878;8.036;2023-03-12T14:15:16;144910.31;;;6.97;100.00
28354;BME280;15603;50.878;8.036;2023-03-12T14:17:45;144933.34;;;7.06;100.00
28354;BME280;15603;50.878;8.036;2023-03-12T14:20:19;144958.78;;;7.17;100.00
28354;BME280;15603;50.878;8.036;2023-03-12T14:22:54;144938.19;;;7.08;100.00
28354;BME280;15603;50.878;8.036;2023-03-12T14:25:41;144953.94;;;7.15;100.00
28354;BME280;15603;50.878;8.036;2023-03-12T14:28:16;144975.75;;;7.24;100.00
28354;BME280;15603;50.878;8.036;2023-03-12T14:30:53;144998.81;;;7.34;100.00
28354;BME280;15603;50.878;8.036;2023-03-12T14:33:23;145032.72;;;7.48;100.00
28354;BME280;15603;50.878;8.036;2023-03-12T14:35:56;145048.53;;;7.55;100.00
28354;BME280;15603;50.878;8.036;2023-03-12T14:38:36;145080.06;;;7.69;100.00
28354;BME280;15603;50.878;8.036;2023-03-12T14:41:28;145120.09;;;7.85;100.00
28354;BME280;15603;50.878;8.036;2023-03-12T14:44:05;145126.16;;;7.88;100.00